Time;durP1;ratioP1;P1;durP2;ratioP2;P2;SDS_P1;SDS_P2;PMS_P1;PMS_P2;Temp;Humidity;BMP_temperature;BMP_pressure;BME280_temperature;BME280_humidity;BME280_pressure;Samples;Min_cycle;Max_cycle;Signal;HPM_P1;HPM_P2
2022/04/07 00:01:25;;;;;;;10.20;3.88;;;;;;;8.83;100.00;99063.47;5009984;28;20721;-57
2022/04/07 00:03:54;;;;;;;6.63;3.50;;;;;;;8.83;100.00;99068.72;5008787;28;20420;-57
2022/04/07 00:06:22;;;;;;;6.93;3.72;;;;;;;8.82;100.00;99063.63;5008473;28;20045;-57
2022/04/07 00:08:50;;;;;;;7.30;4.20;;;;;;;8.86;100.00;99062.38;5009858;28;20141;-58
2022/04/07 00:11:18;;;;;;;7.78;3.72;;;;;;;8.82;100.00;99056.59;5008601;28;20072;-55
2022/04/07 00:13:48;;;;;;;6.65;3.67;;;;;;;8.83;100.00;99046.94;5009768;28;20046;-55
2022/04/07 00:16:16;;;;;;;8.00;3.53;;;;;;;8.82;100.00;99043.50;5009635;28;20046;-55
2022/04/07 00:18:44;;;;;;;6.40;3.75;;;;;;;8.81;100.00;99044.44;5008764;28;20068;-55
2022/04/07 00:21:24;;;;;;;8.80;3.75;;;;;;;8.77;100.00;99041.25;5008363;28;20053;-56
2022/04/07 00:23:53;;;;;;;7.57;3.63;;;;;;;8.78;100.00;99037.66;5009535;28;20045;-55
2022/04/07 00:26:21;;;;;;;8.00;3.88;;;;;;;8.78;100.00;99039.44;5009182;28;20087;-55
2022/04/07 00:28:52;;;;;;;9.30;4.18;;;;;;;8.77;100.00;99035.19;5008870;28;20115;-55
2022/04/07 00:31:20;;;;;;;7.28;3.75;;;;;;;8.73;100.00;99031.16;5008450;28;20116;-55
2022/04/07 00:33:48;;;;;;;8.00;4.25;;;;;;;8.66;100.00;99016.91;5008354;28;20111;-55
2022/04/07 00:36:16;;;;;;;6.97;3.90;;;;;;;8.68;100.00;99020.25;5008184;28;20044;-55
2022/04/07 00:38:45;;;;;;;7.93;4.18;;;;;;;8.60;100.00;99013.03;5009373;28;20045;-56
2022/04/07 00:41:13;;;;;;;8.23;3.70;;;;;;;8.67;100.00;99005.47;5009155;28;20069;-56
2022/04/07 00:43:41;;;;;;;6.63;3.58;;;;;;;8.58;100.00;99002.69;5008472;28;20553;-57
2022/04/07 00:46:10;;;;;;;6.57;3.60;;;;;;;8.63;100.00;99005.75;5008030;28;20049;-58
2022/04/07 00:48:38;;;;;;;7.72;3.22;;;;;;;8.62;100.00;98993.59;5008470;28;20065;-57
2022/04/07 00:51:07;;;;;;;6.72;3.30;;;;;;;8.65;100.00;98984.66;5007743;28;20104;-57
2022/04/07 00:53:36;;;;;;;5.68;3.08;;;;;;;8.64;100.00;98985.59;5009090;28;20069;-57
2022/04/07 00:56:07;;;;;;;7.88;3.22;;;;;;;8.58;100.00;98975.66;5007603;28;20054;-58
2022/04/07 00:58:36;;;;;;;7.60;2.78;;;;;;;8.58;100.00;98976.50;5008472;28;20046;-58
2022/04/07 01:01:04;;;;;;;7.80;2.83;;;;;;;8.59;100.00;98972.91;5009016;28;20111;-58
2022/04/07 01:03:35;;;;;;;6.20;3.30;;;;;;;8.59;100.00;98970.28;5007758;28;20505;-58
2022/04/07 01:06:04;;;;;;;8.95;3.00;;;;;;;8.61;100.00;98964.91;5007170;28;20085;-58
2022/04/07 01:08:33;;;;;;;7.20;2.38;;;;;;;8.59;100.00;98965.06;5008716;28;20097;-58
2022/04/07 01:11:02;;;;;;;9.93;2.92;;;;;;;8.61;100.00;98965.72;5008845;28;20501;-58
2022/04/07 01:13:44;;;;;;;6.32;2.80;;;;;;;8.67;100.00;98953.91;5008650;28;20489;-57
2022/04/07 01:16:13;;;;;;;8.95;2.38;;;;;;;8.70;100.00;98958.03;5008345;28;20052;-56
2022/04/07 01:18:44;;;;;;;5.35;1.77;;;;;;;8.63;100.00;98945.47;5008099;28;20730;-57
2022/04/07 01:21:15;;;;;;;6.57;2.05;;;;;;;8.50;100.00;98949.31;5007366;28;20081;-56
2022/04/07 01:23:51;;;;;;;7.75;1.95;;;;;;;8.56;100.00;98943.53;5008862;28;20065;-56
2022/04/07 01:26:22;;;;;;;6.03;2.10;;;;;;;8.45;100.00;98941.81;5008077;28;20493;-56
2022/04/07 01:28:50;;;;;;;8.38;2.28;;;;;;;8.38;100.00;98938.06;5008200;28;20553;-56
2022/04/07 01:31:18;;;;;;;5.25;1.75;;;;;;;8.31;100.00;98944.78;5008258;28;20084;-58
2022/04/07 01:33:47;;;;;;;6.65;1.77;;;;;;;8.25;100.00;98938.28;5007464;28;20367;-57
2022/04/07 01:36:17;;;;;;;10.80;2.20;;;;;;;8.20;100.00;98936.06;5007219;28;20084;-57
2022/04/07 01:38:46;;;;;;;5.40;2.20;;;;;;;8.17;100.00;98938.94;5008615;28;20077;-57
2022/04/07 01:41:15;;;;;;;7.90;2.03;;;;;;;8.12;100.00;98933.25;5008228;28;20050;-57
2022/04/07 01:43:44;;;;;;;9.18;2.22;;;;;;;8.12;100.00;98920.16;5008572;28;20056;-57
2022/04/07 01:46:13;;;;;;;9.43;2.47;;;;;;;8.09;100.00;98918.63;5008327;28;20060;-57
2022/04/07 01:48:43;;;;;;;6.82;1.80;;;;;;;8.14;100.00;98915.66;5007477;28;20560;-57
2022/04/07 01:51:12;;;;;;;11.90;2.20;;;;;;;8.13;100.00;98898.28;5006709;28;20053;-58
2022/04/07 01:53:40;;;;;;;7.82;2.47;;;;;;;8.09;100.00;98894.25;5009131;28;20417;-55
2022/04/07 01:56:10;;;;;;;9.45;2.20;;;;;;;8.08;100.00;98905.69;5011704;28;20428;-57
2022/04/07 01:58:40;;;;;;;9.45;2.55;;;;;;;8.11;100.00;98895.78;5011924;28;20054;-56
2022/04/07 02:01:09;;;;;;;7.32;2.17;;;;;;;8.07;100.00;98883.06;5012069;28;20104;-58
2022/04/07 02:03:38;;;;;;;6.78;2.03;;;;;;;8.09;100.00;98886.41;5011847;28;20052;-58
2022/04/07 02:06:12;;;;;;;8.45;2.40;;;;;;;8.16;100.00;98873.63;5010594;28;20053;-57
2022/04/07 02:08:40;;;;;;;6.55;2.33;;;;;;;8.08;100.00;98879.50;5012415;28;20401;-58
2022/04/07 02:11:10;;;;;;;7.40;2.72;;;;;;;8.08;100.00;98863.78;5011708;28;20144;-58
2022/04/07 02:13:40;;;;;;;5.18;2.40;;;;;;;8.12;100.00;98852.91;5011881;28;20077;-57
2022/04/07 02:16:11;;;;;;;6.85;2.42;;;;;;;8.08;100.00;98854.13;5010632;28;20056;-58
2022/04/07 02:18:40;;;;;;;7.22;2.55;;;;;;;8.14;100.00;98858.03;5009866;28;20077;-56
2022/04/07 02:21:09;;;;;;;7.13;2.75;;;;;;;8.07;100.00;98851.66;5010361;28;20528;-56
2022/04/07 02:23:42;;;;;;;9.10;2.42;;;;;;;8.03;100.00;98845.03;5012209;28;20152;-55
2022/04/07 02:26:12;;;;;;;7.05;2.75;;;;;;;8.00;100.00;98833.03;5011608;28;20041;-57
2022/04/07 02:28:40;;;;;;;8.07;2.85;;;;;;;8.04;100.00;98813.47;5011148;28;20082;-55
2022/04/07 02:31:10;;;;;;;6.85;2.85;;;;;;;8.06;100.00;98808.13;5011059;28;20050;-56
2022/04/07 02:33:39;;;;;;;7.97;2.90;;;;;;;8.02;100.00;98817.22;5010589;28;20064;-56
2022/04/07 02:36:09;;;;;;;9.13;3.20;;;;;;;8.08;100.00;98814.03;5009767;28;20481;-56
2022/04/07 02:38:37;;;;;;;6.72;2.92;;;;;;;8.00;100.00;98816.50;5011518;28;20766;-56
2022/04/07 02:41:05;;;;;;;8.57;2.78;;;;;;;8.00;100.00;98803.41;5011291;28;20157;-56
2022/04/07 02:43:34;;;;;;;8.65;3.47;;;;;;;8.00;100.00;98806.03;5011331;28;20132;-55
2022/04/07 02:46:02;;;;;;;9.73;3.15;;;;;;;7.93;100.00;98785.63;5011293;28;20038;-56
2022/04/07 02:48:31;;;;;;;9.80;2.97;;;;;;;7.97;100.00;98778.31;5008983;28;20042;-57
2022/04/07 02:51:00;;;;;;;5.93;2.67;;;;;;;8.02;100.00;98783.19;5009680;28;20457;-56
2022/04/07 02:53:28;;;;;;;8.15;2.85;;;;;;;8.02;100.00;98783.19;5010788;28;20053;-57
2022/04/07 02:55:56;;;;;;;8.23;2.83;;;;;;;7.93;100.00;98776.94;5010478;28;20061;-57
2022/04/07 02:58:24;;;;;;;11.40;2.97;;;;;;;8.02;100.00;98775.31;5010048;28;20050;-56
2022/04/07 03:00:52;;;;;;;10.68;2.63;;;;;;;8.06;100.00;98781.94;5010153;28;20383;-56
2022/04/07 03:03:20;;;;;;;9.68;3.20;;;;;;;8.08;100.00;98769.53;5010137;28;20054;-56
2022/04/07 03:05:50;;;;;;;13.02;3.10;;;;;;;8.12;100.00;98779.59;5008858;28;20386;-56
2022/04/07 03:08:18;;;;;;;9.52;3.53;;;;;;;8.12;100.00;98763.06;5010912;28;20600;-56
2022/04/07 03:10:46;;;;;;;11.93;3.20;;;;;;;8.17;100.00;98753.03;5010815;28;20072;-56
2022/04/07 03:13:14;;;;;;;13.98;3.10;;;;;;;8.18;100.00;98746.84;5011086;28;20049;-56
2022/04/07 03:15:42;;;;;;;12.13;3.15;;;;;;;8.20;100.00;98757.16;5010871;28;20057;-58
2022/04/07 03:18:11;;;;;;;11.98;2.60;;;;;;;8.20;100.00;98750.13;5009934;28;20712;-57
2022/04/07 03:20:40;;;;;;;13.60;3.08;;;;;;;8.28;100.00;98757.31;5009601;28;20452;-56
2022/04/07 03:23:09;;;;;;;12.57;3.50;;;;;;;8.20;100.00;98739.66;5010884;28;20046;-56
2022/04/07 03:25:38;;;;;;;11.65;3.47;;;;;;;8.19;100.00;98732.75;5010915;28;20050;-57
2022/04/07 03:28:06;;;;;;;10.02;2.67;;;;;;;8.22;100.00;98732.50;5010176;28;20089;-57
2022/04/07 03:30:35;;;;;;;16.00;2.72;;;;;;;8.17;100.00;98726.84;5010257;28;20058;-57
2022/04/07 03:33:03;;;;;;;11.25;3.15;;;;;;;8.25;100.00;98718.31;5009760;28;20548;-56
2022/04/07 03:35:31;;;;;;;11.75;3.05;;;;;;;8.26;100.00;98712.09;5008824;28;20393;-58
2022/04/07 03:37:59;;;;;;;13.48;2.70;;;;;;;8.25;100.00;98703.41;5010091;28;20049;-58
2022/04/07 03:40:29;;;;;;;9.77;2.70;;;;;;;8.29;100.00;98703.97;5010426;28;20358;-58
2022/04/07 03:42:57;;;;;;;11.60;2.40;;;;;;;8.32;100.00;98698.47;5009758;28;20057;-58
2022/04/07 03:45:25;;;;;;;10.35;2.78;;;;;;;8.32;100.00;98680.13;5010008;28;20085;-58
2022/04/07 03:47:53;;;;;;;11.73;2.78;;;;;;;8.29;100.00;98681.22;5009318;28;20057;-58
2022/04/07 03:50:21;;;;;;;9.88;2.15;;;;;;;8.30;100.00;98676.81;5008113;28;20050;-58
2022/04/07 03:52:50;;;;;;;7.18;2.20;;;;;;;8.28;100.00;98663.03;5009965;28;20054;-58
2022/04/07 03:55:19;;;;;;;9.23;2.10;;;;;;;8.26;100.00;98672.81;5010354;28;20057;-57
2022/04/07 03:57:49;;;;;;;9.95;2.67;;;;;;;8.28;100.00;98657.78;5009589;28;20056;-57
2022/04/07 04:00:18;;;;;;;8.30;2.20;;;;;;;8.20;100.00;98650.63;5009893;28;20636;-57
2022/04/07 04:02:46;;;;;;;6.53;2.05;;;;;;;8.23;100.00;98636.44;5008795;28;20054;-57
2022/04/07 04:05:14;;;;;;;9.48;2.78;;;;;;;8.20;100.00;98624.44;5007885;28;20392;-58
2022/04/07 04:07:42;;;;;;;12.13;2.75;;;;;;;8.26;100.00;98625.66;5009689;28;20432;-57
2022/04/07 04:10:10;;;;;;;13.38;2.47;;;;;;;8.21;100.00;98612.19;5009382;28;20050;-56
2022/04/07 04:12:38;;;;;;;10.27;2.38;;;;;;;8.22;100.00;98604.19;5009542;28;20050;-55
2022/04/07 04:15:09;;;;;;;9.65;2.20;;;;;;;8.27;100.00;98609.81;5009538;28;20058;-56
2022/04/07 04:17:38;;;;;;;8.07;2.50;;;;;;;8.26;100.00;98589.00;5007956;28;20546;-57
2022/04/07 04:20:07;;;;;;;8.77;2.33;;;;;;;8.29;100.00;98588.75;5006903;28;20041;-57
2022/04/07 04:22:35;;;;;;;12.40;2.80;;;;;;;8.28;100.00;98580.03;5009780;28;20054;-57
2022/04/07 04:25:04;;;;;;;11.40;2.38;;;;;;;8.30;100.00;98574.66;5009498;28;20772;-57
2022/04/07 04:27:32;;;;;;;13.13;2.40;;;;;;;8.32;100.00;98570.13;5008896;28;20081;-57
2022/04/07 04:30:00;;;;;;;10.48;2.47;;;;;;;8.31;100.00;98551.94;5009134;28;20057;-58
2022/04/07 04:32:29;;;;;;;12.90;2.78;;;;;;;8.31;100.00;98531.00;5008628;28;20038;-56
2022/04/07 04:34:57;;;;;;;10.98;2.78;;;;;;;8.34;100.00;98528.06;5007065;28;20124;-56
2022/04/07 04:37:26;;;;;;;8.20;3.00;;;;;;;8.35;100.00;98501.75;5007750;28;20046;-57
2022/04/07 04:40:05;;;;;;;10.27;2.35;;;;;;;8.32;100.00;98488.09;5085636;27;20134;-56
2022/04/07 04:42:33;;;;;;;9.20;2.47;;;;;;;8.38;100.00;98501.44;5085205;28;20058;-55
2022/04/07 04:45:01;;;;;;;13.63;2.42;;;;;;;8.37;100.00;98496.34;5085618;28;20048;-55
2022/04/07 04:47:29;;;;;;;8.80;2.20;;;;;;;8.35;100.00;98474.75;5084720;28;20570;-55
2022/04/07 04:49:57;;;;;;;10.20;2.15;;;;;;;8.33;100.00;98476.66;5084291;28;20044;-57
2022/04/07 04:52:25;;;;;;;11.75;3.10;;;;;;;8.40;100.00;98464.66;5084981;28;20048;-55
2022/04/07 04:54:53;;;;;;;9.25;2.50;;;;;;;8.41;100.00;98447.94;5084678;28;20048;-56
2022/04/07 04:57:24;;;;;;;6.97;1.88;;;;;;;8.46;100.00;98457.06;5084683;28;20044;-56
2022/04/07 04:59:52;;;;;;;8.07;2.40;;;;;;;8.50;100.00;98460.22;5085285;28;20048;-56
2022/04/07 05:02:20;;;;;;;10.88;2.22;;;;;;;8.54;100.00;98450.28;5084003;28;20457;-56
2022/04/07 05:04:50;;;;;;;9.80;2.20;;;;;;;8.52;100.00;98447.81;5083707;28;20044;-56
2022/04/07 05:07:18;;;;;;;8.00;1.90;;;;;;;8.48;100.00;98446.47;5085461;28;20072;-54
2022/04/07 05:09:46;;;;;;;8.18;1.90;;;;;;;8.55;100.00;98431.81;5085114;28;20055;-55
2022/04/07 05:12:14;;;;;;;7.82;1.80;;;;;;;8.52;100.00;98432.09;5085018;28;20052;-55
2022/04/07 05:14:43;;;;;;;6.93;1.92;;;;;;;8.50;100.00;98417.50;5085033;28;20058;-55
2022/04/07 05:17:12;;;;;;;7.38;1.98;;;;;;;8.52;100.00;98421.63;5084543;28;20379;-54
2022/04/07 05:19:44;;;;;;;4.80;1.60;;;;;;;8.53;100.00;98422.44;5083738;28;20953;-55
2022/04/07 05:22:12;;;;;;;;;;;;;;;8.53;100.00;98401.47;5085349;28;20040;-55
2022/04/07 05:24:40;;;;;;;5.90;1.67;;;;;;;8.60;100.00;98400.75;5084892;28;19927;-56
2022/04/07 05:27:11;;;;;;;7.53;1.75;;;;;;;8.60;100.00;98408.63;5084504;28;20060;-56
2022/04/07 05:29:39;;;;;;;5.32;1.63;;;;;;;8.62;100.00;98390.13;5085074;28;20559;-57
2022/04/07 05:32:09;;;;;;;4.95;2.03;;;;;;;8.61;100.00;98383.22;5084628;28;20067;-57
2022/04/07 05:34:38;;;;;;;6.13;1.90;;;;;;;8.58;100.00;98359.94;5083760;28;20044;-57
2022/04/07 05:37:06;;;;;;;5.68;1.38;;;;;;;8.58;100.00;98367.81;5084011;28;20052;-58
2022/04/07 05:39:34;;;;;;;4.85;1.83;;;;;;;8.56;100.00;98365.34;5084211;28;20503;-54
2022/04/07 05:42:02;;;;;;;4.00;1.65;;;;;;;8.57;100.00;98350.44;5084458;28;20053;-57
2022/04/07 05:44:30;;;;;;;4.00;1.23;;;;;;;8.54;100.00;98345.50;5084150;28;20052;-57
2022/04/07 05:46:58;;;;;;;5.85;1.50;;;;;;;8.57;100.00;98324.25;5084177;28;20041;-57
2022/04/07 05:49:28;;;;;;;4.50;1.50;;;;;;;8.59;100.00;98333.59;5080694;28;20049;-57
2022/04/07 05:52:00;;;;;;;6.47;1.60;;;;;;;8.57;100.00;98337.34;5069822;28;20044;-57
2022/04/07 05:54:29;;;;;;;4.18;1.10;;;;;;;8.55;100.00;98321.78;5070739;28;20433;-56
2022/04/07 05:56:57;;;;;;;4.90;1.45;;;;;;;8.49;100.00;98317.09;5070525;28;20139;-56
2022/04/07 05:59:25;;;;;;;6.20;1.80;;;;;;;8.49;100.00;98308.44;5070580;28;20032;-55
2022/04/07 06:01:54;;;;;;;3.03;1.20;;;;;;;8.48;100.00;98305.00;5070759;28;20072;-57
2022/04/07 06:04:22;;;;;;;5.40;1.50;;;;;;;8.49;100.00;98293.53;5069371;28;20048;-57
2022/04/07 06:06:51;;;;;;;5.10;1.50;;;;;;;8.48;100.00;98289.28;5069426;28;20056;-57
2022/04/07 06:09:19;;;;;;;5.25;1.70;;;;;;;8.44;100.00;98299.19;5070506;28;20400;-57
2022/04/07 06:11:47;;;;;;;4.28;1.55;;;;;;;8.42;100.00;98295.88;5070519;28;20518;-57
2022/04/07 06:14:16;;;;;;;6.78;1.80;;;;;;;8.41;100.00;98283.78;5070246;28;20047;-57
2022/04/07 06:16:44;;;;;;;4.25;1.50;;;;;;;8.42;100.00;98293.28;5070568;28;20407;-57
2022/04/07 06:19:12;;;;;;;4.13;1.80;;;;;;;8.38;100.00;98270.16;5068837;28;20044;-57
2022/04/07 06:21:40;;;;;;;6.03;1.80;;;;;;;8.34;100.00;98266.19;5069492;28;20495;-57
2022/04/07 06:24:15;;;;;;;3.75;1.38;;;;;;;8.33;100.00;98254.06;5070715;28;20102;-58
2022/04/07 06:26:43;;;;;;;4.22;1.67;;;;;;;8.33;100.00;98257.53;5070185;28;20488;-58
2022/04/07 06:29:11;;;;;;;3.63;1.80;;;;;;;8.28;100.00;98250.09;5069750;28;20046;-58
2022/04/07 06:31:39;;;;;;;4.78;2.00;;;;;;;8.27;100.00;98243.19;5065750;28;20048;-57
2022/04/07 06:34:20;;;;;;;4.30;1.88;;;;;;;8.28;100.00;98244.84;5059452;28;20579;-58
2022/04/07 06:36:48;;;;;;;5.72;2.10;;;;;;;8.28;100.00;98244.84;5055663;28;20115;-58
2022/04/07 06:39:18;;;;;;;6.45;2.30;;;;;;;8.22;100.00;98240.22;5059263;28;20189;-58
2022/04/07 06:41:46;;;;;;;6.57;2.13;;;;;;;8.22;100.00;98242.00;5059322;28;20053;-57
2022/04/07 06:44:15;;;;;;;6.88;2.33;;;;;;;8.22;100.00;98234.16;5058663;28;20119;-58
2022/04/07 06:46:43;;;;;;;9.10;2.67;;;;;;;8.16;100.00;98227.72;5069574;28;20044;-57
2022/04/07 06:49:11;;;;;;;6.60;2.67;;;;;;;8.17;100.00;98231.97;5068817;28;20110;-57
2022/04/07 06:51:39;;;;;;;7.10;2.95;;;;;;;8.16;100.00;98216.44;5069139;28;20068;-57
2022/04/07 06:54:07;;;;;;;8.60;2.78;;;;;;;8.13;100.00;98212.31;5065504;28;20058;-57
2022/04/07 06:56:37;;;;;;;7.63;3.00;;;;;;;8.12;100.00;98215.88;5066443;28;20078;-57
2022/04/07 06:59:05;;;;;;;6.80;2.97;;;;;;;8.16;100.00;98206.78;5065954;28;20450;-57
2022/04/07 07:01:34;;;;;;;7.05;2.72;;;;;;;8.25;100.00;98200.66;5068502;28;20068;-57
2022/04/07 07:04:05;;;;;;;7.00;2.75;;;;;;;8.20;100.00;98199.44;5067750;28;20416;-56
2022/04/07 07:06:33;;;;;;;7.78;2.72;;;;;;;8.20;100.00;98207.31;5067611;28;20101;-56
2022/04/07 07:09:01;;;;;;;5.65;2.50;;;;;;;8.17;100.00;98205.00;5068970;28;20462;-56
2022/04/07 07:11:29;;;;;;;7.40;2.75;;;;;;;8.21;100.00;98224.66;5068734;28;20063;-56
2022/04/07 07:13:58;;;;;;;2.80;1.33;;;;;;;7.64;100.00;98282.41;5068374;28;20467;-57
2022/04/07 07:16:27;;;;;;;0.30;0.30;;;;;;;7.07;100.00;98267.56;5068765;28;20059;-56
2022/04/07 07:18:56;;;;;;;0.85;0.40;;;;;;;6.54;100.00;98264.41;5067347;28;20106;-56
2022/04/07 07:21:24;;;;;;;2.15;0.70;;;;;;;6.34;100.00;98307.97;5067016;28;20044;-55
2022/04/07 07:23:52;;;;;;;2.17;0.63;;;;;;;6.32;100.00;98289.00;5068411;28;20045;-57
2022/04/07 07:26:20;;;;;;;3.08;0.60;;;;;;;6.01;100.00;98277.81;5068211;28;20055;-57
2022/04/07 07:28:48;;;;;;;3.17;0.70;;;;;;;5.63;100.00;98267.09;5068268;28;20052;-56
2022/04/07 07:31:18;;;;;;;3.50;0.77;;;;;;;5.66;100.00;98266.00;5068689;28;20057;-57
2022/04/07 07:33:46;;;;;;;3.08;0.80;;;;;;;5.69;100.00;98278.78;5067623;28;20052;-56
2022/04/07 07:36:14;;;;;;;3.72;1.02;;;;;;;5.48;100.00;98269.25;5067233;28;20560;-56
2022/04/07 07:38:42;;;;;;;2.92;0.85;;;;;;;5.58;100.00;98253.63;5067892;28;20056;-55
2022/04/07 07:41:10;;;;;;;2.72;0.82;;;;;;;5.60;100.00;98251.69;5068365;28;20079;-56
2022/04/07 07:43:38;;;;;;;4.72;1.10;;;;;;;5.65;100.00;98248.72;5067792;28;20063;-55
2022/04/07 07:46:06;;;;;;;2.80;1.10;;;;;;;5.68;100.00;98236.22;5068184;28;20106;-54
2022/04/07 07:48:35;;;;;;;4.63;0.93;;;;;;;5.62;100.00;98221.13;5067265;28;20135;-56
2022/04/07 07:51:03;;;;;;;3.72;0.90;;;;;;;5.57;100.00;98194.63;5066452;28;20529;-56
2022/04/07 07:53:32;;;;;;;3.22;0.90;;;;;;;5.55;100.00;98207.78;5067921;28;20517;-53
2022/04/07 07:56:00;;;;;;;4.78;1.00;;;;;;;5.50;100.00;98199.53;5068042;28;20490;-53
2022/04/07 07:58:28;;;;;;;5.45;1.00;;;;;;;5.51;100.00;98216.84;5065750;28;20106;-55
2022/04/07 08:00:56;;;;;;;5.57;1.45;;;;;;;5.53;100.00;98221.91;5066967;28;20068;-53
2022/04/07 08:03:24;;;;;;;8.20;1.40;;;;;;;5.53;100.00;98233.16;5065375;28;20044;-54
2022/04/07 08:05:54;;;;;;;5.05;1.15;;;;;;;5.45;100.00;98251.22;5065864;28;20098;-56
2022/04/07 08:08:22;;;;;;;4.57;1.27;;;;;;;5.53;100.00;98267.03;5066955;28;20114;-56
2022/04/07 08:10:50;;;;;;;3.83;1.00;;;;;;;5.41;100.00;98257.66;5067369;28;20049;-54
2022/04/07 08:13:18;;;;;;;6.05;1.15;;;;;;;5.32;100.00;98246.25;5066319;28;20482;-56
2022/04/07 08:15:46;;;;;;;4.20;1.10;;;;;;;5.37;100.00;98236.25;5066644;28;20064;-55
2022/04/07 08:18:15;;;;;;;4.30;0.90;;;;;;;5.34;100.00;98233.09;5066379;28;20185;-56
2022/04/07 08:20:43;;;;;;;5.00;1.05;;;;;;;5.36;100.00;98239.81;5065063;28;20040;-55
2022/04/07 08:23:12;;;;;;;2.78;0.93;;;;;;;5.42;100.00;98234.06;5067155;28;20052;-56
2022/04/07 08:25:41;;;;;;;4.40;1.30;;;;;;;5.46;100.00;98215.56;5067614;28;20206;-55
2022/04/07 08:28:10;;;;;;;4.57;1.20;;;;;;;5.50;100.00;98178.66;5066732;28;20048;-56
2022/04/07 08:30:38;;;;;;;2.75;1.00;;;;;;;5.54;100.00;98192.28;5066759;28;20052;-55
2022/04/07 08:33:07;;;;;;;6.47;1.52;;;;;;;5.62;100.00;98170.72;5066364;28;20060;-56
2022/04/07 08:35:35;;;;;;;3.80;1.38;;;;;;;5.63;100.00;98178.44;5065344;28;20045;-56
2022/04/07 08:38:04;;;;;;;5.70;1.42;;;;;;;5.75;100.00;98174.78;5066817;28;20060;-54
2022/04/07 08:40:36;;;;;;;4.97;1.15;;;;;;;5.84;100.00;98188.78;5066753;28;20044;-56
2022/04/07 08:43:05;;;;;;;5.40;1.35;;;;;;;6.02;100.00;98188.97;5066567;28;20048;-56
2022/04/07 08:45:34;;;;;;;4.55;1.40;;;;;;;6.13;100.00;98163.72;5066666;28;20040;-56
2022/04/07 08:48:04;;;;;;;5.13;1.60;;;;;;;6.25;100.00;98160.81;5066380;28;20476;-56
2022/04/07 08:50:34;;;;;;;4.60;1.42;;;;;;;6.23;100.00;98154.09;5064873;28;20044;-55
2022/04/07 08:53:02;;;;;;;6.18;1.70;;;;;;;6.38;100.00;98151.88;5066663;28;20143;-56
2022/04/07 08:55:31;;;;;;;7.82;1.80;;;;;;;6.65;100.00;98158.97;5066883;28;20056;-57
2022/04/07 08:58:00;;;;;;;7.22;2.28;;;;;;;6.99;100.00;98155.88;5065568;28;20052;-55
2022/04/07 09:00:28;;;;;;;8.32;2.00;;;;;;;7.23;100.00;98173.69;5066178;28;20048;-56
2022/04/07 09:02:57;;;;;;;8.07;2.10;;;;;;;7.48;100.00;98181.00;5066388;28;20117;-55
2022/04/07 09:05:31;;;;;;;6.88;1.70;;;;;;;7.84;100.00;98175.84;5063975;28;20056;-55
2022/04/07 09:07:59;;;;;;;3.97;1.90;;;;;;;8.20;100.00;98178.50;5066119;28;20059;-57
2022/04/07 09:10:28;;;;;;;5.10;2.08;;;;;;;8.42;100.00;98164.13;5066623;28;20051;-56
2022/04/07 09:13:05;;;;;;;8.43;2.17;;;;;;;8.48;100.00;98173.19;5066084;28;20048;-57
2022/04/07 09:15:34;;;;;;;4.95;1.10;;;;;;;8.60;100.00;98171.97;5066473;28;20044;-55
2022/04/07 09:18:04;;;;;;;3.35;1.45;;;;;;;8.71;100.00;98166.50;5066005;28;20037;-57
2022/04/07 09:20:42;;;;;;;4.15;1.10;;;;;;;8.77;100.00;98171.13;5065224;28;20132;-57
2022/04/07 09:23:12;;;;;;;3.97;1.30;;;;;;;9.09;100.00;98158.38;5067061;28;20555;-56
2022/04/07 09:25:46;;;;;;;4.95;1.20;;;;;;;9.11;100.00;98166.91;5068804;28;20048;-56
2022/04/07 09:28:28;;;;;;;6.22;1.27;;;;;;;9.21;100.00;98170.22;5070291;28;20043;-56
2022/04/07 09:30:57;;;;;;;5.82;1.30;;;;;;;9.37;100.00;98177.34;5071359;28;20044;-56
2022/04/07 09:33:27;;;;;;;3.22;0.90;;;;;;;9.26;100.00;98180.25;5071016;28;20048;-56
2022/04/07 09:36:00;;;;;;;5.38;1.40;;;;;;;9.29;100.00;98177.31;5070010;28;20700;-56
2022/04/07 09:38:29;;;;;;;;;;;;;;;9.30;100.00;98190.28;5071528;28;20082;-56
2022/04/07 09:41:08;;;;;;;3.90;0.90;;;;;;;9.22;100.00;98187.63;5071225;28;20386;-57
2022/04/07 09:43:46;;;;;;;6.47;1.35;;;;;;;9.26;100.00;98196.81;5071513;28;20066;-57
2022/04/07 09:46:15;;;;;;;3.28;0.90;;;;;;;9.19;100.00;98193.19;5069879;28;20056;-57
2022/04/07 09:48:58;;;;;;;6.63;1.20;;;;;;;9.46;100.00;98181.66;5070238;28;20044;-56
2022/04/07 09:51:27;;;;;;;6.72;1.38;;;;;;;9.42;100.00;98190.00;5069791;28;20067;-59
2022/04/07 09:53:57;;;;;;;5.03;1.20;;;;;;;9.61;100.00;98178.44;5070975;28;20040;-56
2022/04/07 09:56:28;;;;;;;3.50;1.30;;;;;;;9.54;100.00;98175.59;5070904;28;20625;-59
2022/04/07 09:58:58;;;;;;;7.22;1.10;;;;;;;9.66;100.00;98181.41;5070705;28;20105;-57
2022/04/07 10:01:32;;;;;;;7.35;1.08;;;;;;;9.60;100.00;98195.97;5070642;28;20040;-59
2022/04/07 10:04:03;;;;;;;4.25;1.00;;;;;;;9.62;100.00;98166.97;5069673;28;20048;-57
2022/04/07 10:06:32;;;;;;;3.75;0.90;;;;;;;9.84;100.00;98168.16;5068661;28;20056;-57
2022/04/07 10:09:02;;;;;;;6.00;0.98;;;;;;;9.97;100.00;98163.28;5070590;28;20049;-57
2022/04/07 10:11:31;;;;;;;5.63;1.00;;;;;;;10.40;100.00;98171.09;5070532;28;20041;-57
2022/04/07 10:14:01;;;;;;;4.82;0.90;;;;;;;10.38;98.06;98173.03;5069866;28;20117;-58
2022/04/07 10:16:45;;;;;;;4.63;1.00;;;;;;;10.41;99.93;98167.44;5069936;28;20036;-56
2022/04/07 10:19:21;;;;;;;4.60;0.93;;;;;;;10.25;96.80;98164.78;5068881;28;20097;-57
2022/04/07 10:22:12;;;;;;;5.35;0.88;;;;;;;10.28;96.13;98167.06;5069679;28;20514;-56
2022/04/07 10:24:45;;;;;;;4.82;1.00;;;;;;;10.29;92.29;98166.09;5070893;28;20040;-56
2022/04/07 10:27:34;;;;;;;4.43;1.05;;;;;;;10.77;94.80;98156.59;5069473;28;20117;-57
2022/04/07 10:30:06;;;;;;;4.07;1.17;;;;;;;10.99;90.72;98165.59;5070765;28;20056;-56
2022/04/07 10:32:39;;;;;;;6.85;0.80;;;;;;;10.90;89.91;98177.09;5070056;28;20052;-57
2022/04/07 10:35:08;;;;;;;5.50;0.80;;;;;;;10.85;92.15;98168.06;5068567;28;20099;-56
2022/04/07 10:37:45;;;;;;;5.72;0.82;;;;;;;10.46;88.16;98180.09;5069759;28;20063;-55
2022/04/07 10:40:39;;;;;;;3.40;0.90;;;;;;;10.46;87.18;98188.81;5070131;28;20507;-56
2022/04/07 10:43:10;;;;;;;5.70;1.00;;;;;;;10.32;85.19;98184.16;5069856;28;20094;-58
2022/04/07 10:45:41;;;;;;;6.78;0.93;;;;;;;10.29;85.03;98193.22;5069941;28;20071;-57
2022/04/07 10:48:34;;;;;;;6.40;1.63;;;;;;;10.26;82.58;98198.75;5069544;28;20113;-56
2022/04/07 10:51:03;;;;;;;;;;;;;;;10.39;82.53;98200.97;5069068;28;20151;-58
2022/04/07 10:53:33;;;;;;;4.40;1.08;;;;;;;10.38;82.75;98212.44;5070164;28;20329;-58
2022/04/07 10:56:05;;;;;;;9.73;1.20;;;;;;;10.31;81.38;98199.09;5069889;28;20479;-57
2022/04/07 10:58:51;;;;;;;6.45;1.17;;;;;;;10.38;81.68;98211.63;5069378;28;20053;-56
2022/04/07 11:01:53;;;;;;;11.90;1.55;;;;;;;10.29;78.30;98219.47;5068321;28;20068;-57
2022/04/07 11:04:40;;;;;;;8.98;2.00;;;;;;;10.20;81.17;98215.19;5066274;28;20080;-57
2022/04/07 11:07:14;;;;;;;8.35;1.58;;;;;;;10.30;79.82;98217.66;5069057;28;20118;-57
2022/04/07 11:10:03;;;;;;;8.40;1.48;;;;;;;10.26;78.11;98227.66;5070005;28;20083;-56
2022/04/07 11:12:33;;;;;;;8.48;1.48;;;;;;;10.27;80.53;98221.44;5069181;28;20051;-56
2022/04/07 11:15:18;;;;;;;10.57;1.33;;;;;;;10.40;81.75;98233.28;5069171;28;20052;-57
2022/04/07 11:17:53;;;;;;;9.40;2.20;;;;;;;10.43;81.49;98243.47;5068915;28;20056;-56
2022/04/07 11:20:23;;;;;;;9.68;1.55;;;;;;;10.24;78.99;98232.25;5066099;28;20048;-59
2022/04/07 11:22:54;;;;;;;8.20;1.77;;;;;;;10.04;79.51;98246.66;5069382;28;20036;-59
2022/04/07 11:25:25;;;;;;;9.40;1.52;;;;;;;10.04;79.20;98239.59;5069500;28;20082;-58
2022/04/07 11:28:11;;;;;;;8.27;1.27;;;;;;;10.13;79.58;98253.59;5069355;28;20489;-57
2022/04/07 11:30:41;;;;;;;9.43;1.58;;;;;;;10.05;79.94;98267.50;5069156;28;20521;-55
2022/04/07 11:33:27;;;;;;;9.52;1.60;;;;;;;9.95;80.61;98270.28;5068338;28;20495;-58
2022/04/07 11:36:33;;;;;;;10.18;1.50;;;;;;;9.91;78.52;98271.56;5067401;28;20059;-57
2022/04/07 11:39:02;;;;;;;7.07;1.52;;;;;;;9.74;78.67;98268.03;5068677;28;20057;-57
2022/04/07 11:41:41;;;;;;;11.07;1.85;;;;;;;9.86;78.36;98276.47;5068875;28;20044;-58
2022/04/07 11:44:11;;;;;;;9.07;1.30;;;;;;;9.74;78.66;98273.28;5069077;28;20052;-57
2022/04/07 11:46:40;;;;;;;10.38;2.03;;;;;;;9.78;75.94;98281.69;5069109;28;20084;-58
2022/04/07 11:49:11;;;;;;;8.48;1.52;;;;;;;9.82;78.34;98291.69;5067100;28;20114;-58